Terminal Aerodrome Forecast
Issued by NWS Cleveland, OH

Home | Current Version | Previous Version | Text Only | Print | Product List | Glossary Off
Versions: 1 2 3 4 5 6 7 8 9 10 11 12 13 14 15 16 17 18

756
FTUS41 KCLE 161740 AAA
TAFYNG
TAF AMD
KYNG 161740Z 1618/1718 25012G22KT P6SM VCSH SCT015 OVC025
      TEMPO 1622/1702 BKN015 OVC025
     FM170200 24012G22KT P6SM VCSH OVC015
     FM170600 26010G20KT P6SM VCSH OVC007
     FM171500 27015G25KT P6SM VCSH OVC015=

USA.gov is the U.S. government's official web portal to all federal, state and local government web resources and services.